createdAt,value
2022-11-28T00:01:20.459Z,17.92
2022-11-28T00:03:46.831Z,22.13
2022-11-28T00:06:13.254Z,20.50
2022-11-28T00:08:39.632Z,19.65
2022-11-28T00:11:05.963Z,19.12
2022-11-28T00:13:32.293Z,20.27
2022-11-28T00:15:58.668Z,16.73
2022-11-28T00:18:25.013Z,20.20
2022-11-28T00:20:51.335Z,20.88
2022-11-28T00:23:17.646Z,16.50
2022-11-28T00:25:43.978Z,19.65
2022-11-28T00:28:10.290Z,22.80
2022-11-28T00:30:36.831Z,18.65
2022-11-28T00:33:03.138Z,22.73
2022-11-28T00:35:29.446Z,17.87
2022-11-28T00:37:55.776Z,21.05
2022-11-28T00:40:22.077Z,18.70
2022-11-28T00:42:48.429Z,20.65
2022-11-28T00:45:14.789Z,19.05
2022-11-28T00:47:41.140Z,19.02
2022-11-28T00:50:07.459Z,20.95
2022-11-28T00:52:33.807Z,17.65
2022-11-28T00:55:00.163Z,19.37
2022-11-28T00:57:26.475Z,17.60
2022-11-28T00:59:52.806Z,22.17
2022-11-28T01:02:19.223Z,17.37
2022-11-28T01:04:45.638Z,15.90
2022-11-28T01:07:12.005Z,17.75
2022-11-28T01:09:38.340Z,17.95
2022-11-28T01:12:04.645Z,19.37
2022-11-28T01:14:31.026Z,17.25
2022-11-28T01:16:57.449Z,16.02
2022-11-28T01:19:23.849Z,18.55
2022-11-28T01:21:50.261Z,16.55
2022-11-28T01:24:16.670Z,15.40
2022-11-28T01:26:43.008Z,17.10
2022-11-28T01:29:09.332Z,16.25
2022-11-28T01:31:35.878Z,15.73
2022-11-28T01:34:02.251Z,16.83
2022-11-28T01:36:28.579Z,17.45
2022-11-28T01:38:54.902Z,20.10
2022-11-28T01:41:21.237Z,18.33
2022-11-28T01:43:47.550Z,17.52
2022-11-28T01:46:13.908Z,16.92
2022-11-28T01:48:40.258Z,20.15
2022-11-28T01:51:06.578Z,21.33
2022-11-28T01:53:33.038Z,21.33
2022-11-28T01:55:59.392Z,17.55
2022-11-28T01:58:25.780Z,17.10
2022-11-28T02:00:52.185Z,20.30
2022-11-28T02:03:18.525Z,19.52
2022-11-28T02:05:44.885Z,18.40
2022-11-28T02:08:11.302Z,21.02
2022-11-28T02:10:37.632Z,20.12
2022-11-28T02:13:03.932Z,17.33
2022-11-28T02:15:30.343Z,18.90
2022-11-28T02:17:56.691Z,17.70
2022-11-28T02:20:23.016Z,20.50
2022-11-28T02:22:49.334Z,17.27
2022-11-28T02:25:15.915Z,17.98
2022-11-28T02:27:42.250Z,17.05
2022-11-28T02:30:08.585Z,19.10
2022-11-28T02:32:34.979Z,19.02
2022-11-28T02:35:01.313Z,19.65
2022-11-28T02:37:27.625Z,16.40
2022-11-28T02:39:53.990Z,20.50
2022-11-28T02:42:20.309Z,16.70
2022-11-28T02:44:46.627Z,18.12
2022-11-28T02:47:12.993Z,19.40
2022-11-28T02:49:39.356Z,19.05
2022-11-28T02:52:05.716Z,22.23
2022-11-28T02:54:32.621Z,18.35
2022-11-28T02:56:58.943Z,21.77
2022-11-28T02:59:25.253Z,17.52
2022-11-28T03:01:51.807Z,16.85
2022-11-28T03:04:18.157Z,18.10
2022-11-28T03:06:44.614Z,17.80
2022-11-28T03:09:10.987Z,20.62
2022-11-28T03:11:37.303Z,21.87
2022-11-28T03:14:03.614Z,18.00
2022-11-28T03:16:30.100Z,17.52
2022-11-28T03:18:56.458Z,21.83
2022-11-28T03:21:22.774Z,17.90
2022-11-28T03:23:49.098Z,17.23
2022-11-28T03:26:15.415Z,16.67
2022-11-28T03:28:43.763Z,18.08
2022-11-28T03:31:10.312Z,18.48
2022-11-28T03:33:36.663Z,16.05
2022-11-28T03:36:03.009Z,18.80
2022-11-28T03:38:29.319Z,16.08
2022-11-28T03:40:55.634Z,17.33
2022-11-28T03:43:21.977Z,19.33
2022-11-28T03:45:48.319Z,18.12
2022-11-28T03:48:14.676Z,15.40
2022-11-28T03:50:41.009Z,18.77
2022-11-28T03:53:07.331Z,16.25
2022-11-28T03:55:33.707Z,17.75
2022-11-28T03:58:00.076Z,15.45
2022-11-28T04:00:26.451Z,18.75
2022-11-28T04:02:52.882Z,17.17
2022-11-28T04:05:19.246Z,16.87
2022-11-28T04:07:45.626Z,15.23
2022-11-28T04:10:12.029Z,20.37
2022-11-28T04:12:38.470Z,17.60
2022-11-28T04:15:04.792Z,18.85
2022-11-28T04:17:31.081Z,17.12
2022-11-28T04:19:57.406Z,18.27
2022-11-28T04:22:23.717Z,19.15
2022-11-28T04:24:50.024Z,19.75
2022-11-28T04:27:16.378Z,18.65
2022-11-28T04:29:42.696Z,19.27
2022-11-28T04:32:09.009Z,19.70
2022-11-28T04:34:35.346Z,18.98
2022-11-28T04:37:05.482Z,18.10
2022-11-28T04:39:34.859Z,20.52
2022-11-28T04:42:01.195Z,19.98
2022-11-28T04:44:27.531Z,18.90
2022-11-28T04:46:54.009Z,18.83
2022-11-28T04:49:20.324Z,18.40
2022-11-28T04:51:46.780Z,16.65
2022-11-28T04:54:13.099Z,16.17
2022-11-28T04:56:39.466Z,18.60
2022-11-28T04:59:06.142Z,19.70
2022-11-28T05:01:32.560Z,20.45
2022-11-28T05:03:58.881Z,18.77
2022-11-28T05:06:25.232Z,17.37
2022-11-28T05:08:51.552Z,20.10
2022-11-28T05:11:17.875Z,16.37
2022-11-28T05:13:44.862Z,18.23
2022-11-28T05:16:11.236Z,17.02
2022-11-28T05:18:37.589Z,17.85
2022-11-28T05:21:06.783Z,17.92
2022-11-28T05:23:33.136Z,17.67
2022-11-28T05:25:59.441Z,15.85
2022-11-28T05:28:25.788Z,16.73
2022-11-28T05:30:52.087Z,19.35
2022-11-28T05:33:18.417Z,18.58
2022-11-28T05:35:44.720Z,20.00
2022-11-28T05:38:13.661Z,19.30
2022-11-28T05:40:44.496Z,18.30
2022-11-28T05:43:10.914Z,18.95
2022-11-28T05:45:37.311Z,20.62
2022-11-28T05:48:03.703Z,20.40
2022-11-28T05:50:30.023Z,17.95
2022-11-28T05:52:56.354Z,17.40
2022-11-28T05:55:22.744Z,18.73
2022-11-28T05:57:49.133Z,20.15
2022-11-28T06:00:15.453Z,16.95
2022-11-28T06:02:41.778Z,16.70
2022-11-28T06:05:27.670Z,17.45
2022-11-28T06:07:54.421Z,19.33
2022-11-28T06:10:22.580Z,15.88
2022-11-28T06:12:48.907Z,17.77
2022-11-28T06:15:15.217Z,16.73
2022-11-28T06:17:41.529Z,16.85
2022-11-28T06:20:08.759Z,16.35
2022-11-28T06:22:35.078Z,17.25
2022-11-28T06:25:01.439Z,15.80
2022-11-28T06:27:27.808Z,17.85
2022-11-28T06:29:54.117Z,16.67
2022-11-28T06:32:22.162Z,17.83
2022-11-28T06:34:48.685Z,18.27
2022-11-28T06:37:15.007Z,17.00
2022-11-28T06:39:41.632Z,20.25
2022-11-28T06:42:08.152Z,17.75
2022-11-28T06:44:34.529Z,18.15
2022-11-28T06:47:00.832Z,20.15
2022-11-28T06:49:27.176Z,17.58
2022-11-28T06:51:53.485Z,16.10
2022-11-28T06:54:20.043Z,18.35
2022-11-28T06:56:46.440Z,18.65
2022-11-28T06:59:13.114Z,17.62
2022-11-28T07:01:39.510Z,18.17
2022-11-28T07:04:05.896Z,16.67
2022-11-28T07:06:32.222Z,17.95
2022-11-28T07:08:58.541Z,17.92
2022-11-28T07:11:24.896Z,18.08
2022-11-28T07:13:51.490Z,16.98
2022-11-28T07:16:17.810Z,16.83
2022-11-28T07:18:44.226Z,16.33
2022-11-28T07:21:10.610Z,20.90
2022-11-28T07:23:37.238Z,15.10
2022-11-28T07:26:03.556Z,13.88
2022-11-28T07:28:29.941Z,17.70
2022-11-28T07:30:56.288Z,15.45
2022-11-28T07:33:22.602Z,14.68
2022-11-28T07:35:48.916Z,16.67
2022-11-28T07:38:15.235Z,16.50
2022-11-28T07:40:41.837Z,16.73
2022-11-28T07:43:08.147Z,13.05
2022-11-28T07:45:58.958Z,18.10
2022-11-28T07:48:20.894Z,15.57
2022-11-28T07:50:47.256Z,15.90
2022-11-28T07:53:13.558Z,15.52
2022-11-28T07:55:39.919Z,16.60
2022-11-28T07:58:06.287Z,15.13
2022-11-28T08:00:32.616Z,14.52
2022-11-28T08:02:58.949Z,16.15
2022-11-28T08:05:25.290Z,11.27
2022-11-28T08:07:51.720Z,15.85
2022-11-28T08:10:18.076Z,17.37
2022-11-28T08:12:44.419Z,14.45
2022-11-28T08:15:10.744Z,13.60
2022-11-28T08:17:37.066Z,15.98
2022-11-28T08:20:03.393Z,16.80
2022-11-28T08:22:29.706Z,16.45
2022-11-28T08:24:56.030Z,14.30
2022-11-28T08:27:22.364Z,13.82
2022-11-28T08:29:52.044Z,16.37
2022-11-28T08:32:20.469Z,15.27
2022-11-28T08:34:46.821Z,19.45
2022-11-28T08:37:13.174Z,16.45
2022-11-28T08:39:39.481Z,17.75
2022-11-28T08:42:05.780Z,14.73
2022-11-28T08:44:32.114Z,22.65
2022-11-28T08:46:58.463Z,22.52
2022-11-28T08:49:24.798Z,16.37
2022-11-28T08:51:51.120Z,19.58
2022-11-28T08:54:17.448Z,15.10
2022-11-28T08:56:45.354Z,17.30
2022-11-28T08:59:11.672Z,19.65
2022-11-28T09:01:39.671Z,13.93
2022-11-28T09:04:06.110Z,14.45
2022-11-28T09:06:32.526Z,16.23
2022-11-28T09:08:58.883Z,13.65
2022-11-28T09:11:25.228Z,18.02
2022-11-28T09:13:51.577Z,14.87
2022-11-28T09:16:17.986Z,19.02
2022-11-28T09:18:44.541Z,15.77
2022-11-28T09:21:11.675Z,15.77
2022-11-28T09:23:38.064Z,18.85
2022-11-28T09:26:04.397Z,20.62
2022-11-28T09:28:30.746Z,17.42
2022-11-28T09:30:57.118Z,14.75
2022-11-28T09:33:23.610Z,18.60
2022-11-28T09:35:49.918Z,18.50
2022-11-28T09:38:16.353Z,15.40
2022-11-28T09:40:42.665Z,16.75
2022-11-28T09:43:08.982Z,17.95
2022-11-28T09:45:36.351Z,14.57
2022-11-28T09:48:02.654Z,16.17
2022-11-28T09:50:28.990Z,16.48
2022-11-28T09:52:55.408Z,17.02
2022-11-28T09:55:21.842Z,18.98
2022-11-28T09:57:48.251Z,16.75
2022-11-28T10:00:17.704Z,20.12
2022-11-28T10:02:44.093Z,19.20
2022-11-28T10:05:10.476Z,19.62
2022-11-28T10:07:36.912Z,18.45
2022-11-28T10:10:03.281Z,18.00
2022-11-28T10:12:29.652Z,18.58
2022-11-28T10:14:55.970Z,18.62
2022-11-28T10:17:22.338Z,18.10
2022-11-28T10:19:55.896Z,17.35
2022-11-28T10:22:22.353Z,19.52
2022-11-28T10:24:48.683Z,19.50
2022-11-28T10:27:15.075Z,20.73
2022-11-28T10:29:41.763Z,17.20
2022-11-28T10:32:08.360Z,18.58
2022-11-28T10:34:34.680Z,17.58
2022-11-28T10:37:01.408Z,17.48
2022-11-28T10:39:27.713Z,19.05
2022-11-28T10:42:11.752Z,18.52
2022-11-28T10:44:38.119Z,18.05
2022-11-28T10:47:04.472Z,20.10
2022-11-28T10:49:30.854Z,19.48
2022-11-28T10:51:57.239Z,22.15
2022-11-28T10:54:23.549Z,18.60
2022-11-28T10:56:49.868Z,15.05
2022-11-28T10:59:16.667Z,21.58
2022-11-28T11:01:47.348Z,19.50
2022-11-28T11:04:16.455Z,18.02
2022-11-28T11:07:06.809Z,18.27
2022-11-28T11:09:29.318Z,23.67
2022-11-28T11:11:55.633Z,18.95
2022-11-28T11:14:21.956Z,20.83
2022-11-28T11:16:48.770Z,21.80
2022-11-28T11:19:15.184Z,19.80
2022-11-28T11:21:41.515Z,19.62
2022-11-28T11:24:07.922Z,17.48
2022-11-28T11:26:34.256Z,18.45
2022-11-28T11:29:01.505Z,20.17
2022-11-28T11:31:27.940Z,18.48
2022-11-28T11:33:54.381Z,20.20
2022-11-28T11:36:21.375Z,20.65
2022-11-28T11:38:47.694Z,23.42
2022-11-28T11:41:14.001Z,22.10
2022-11-28T11:43:40.418Z,19.30
2022-11-28T11:46:06.805Z,20.27
2022-11-28T11:48:33.146Z,17.58
2022-11-28T11:50:59.465Z,19.77
2022-11-28T11:53:25.790Z,18.83
2022-11-28T11:55:52.113Z,19.12
2022-11-28T11:58:18.435Z,20.05
2022-11-28T12:00:45.843Z,17.48
2022-11-28T12:03:12.295Z,19.83
2022-11-28T12:06:06.138Z,20.30
2022-11-28T12:08:25.237Z,21.50
2022-11-28T12:10:51.549Z,18.70
2022-11-28T12:13:17.886Z,19.67
2022-11-28T12:15:44.312Z,22.52
2022-11-28T12:18:10.703Z,20.08
2022-11-28T12:20:37.131Z,23.05
2022-11-28T12:23:03.576Z,21.20
2022-11-28T12:25:29.922Z,22.67
2022-11-28T12:27:56.587Z,19.45
2022-11-28T12:30:23.004Z,19.75
2022-11-28T12:32:49.481Z,23.40
2022-11-28T12:35:15.867Z,22.23
2022-11-28T12:38:09.761Z,17.80
2022-11-28T12:40:28.547Z,22.55
2022-11-28T12:42:54.927Z,19.80
2022-11-28T12:45:21.278Z,21.23
2022-11-28T12:47:47.632Z,18.73
2022-11-28T12:50:13.983Z,20.90
2022-11-28T12:52:40.349Z,18.23
2022-11-28T12:55:06.697Z,19.08
2022-11-28T12:57:33.569Z,20.02
2022-11-28T13:00:05.032Z,19.33
2022-11-28T13:02:34.748Z,21.45
2022-11-28T13:05:01.260Z,24.15
2022-11-28T13:07:27.651Z,20.00
2022-11-28T13:09:54.024Z,21.65
2022-11-28T13:12:20.430Z,19.90
2022-11-28T13:14:46.987Z,20.92
2022-11-28T13:17:13.604Z,20.52
2022-11-28T13:19:39.963Z,19.67
2022-11-28T13:22:06.356Z,20.27
2022-11-28T13:24:32.708Z,19.15
2022-11-28T13:27:00.419Z,20.98
2022-11-28T13:29:27.009Z,18.35
2022-11-28T13:31:56.133Z,20.37
2022-11-28T13:34:26.736Z,20.52
2022-11-28T13:39:40.323Z,18.27
2022-11-28T13:42:28.776Z,19.30
2022-11-28T13:44:52.984Z,14.00
2022-11-28T13:47:19.299Z,19.73
2022-11-28T13:49:45.608Z,22.17
2022-11-28T13:52:11.943Z,18.67
2022-11-28T13:54:38.390Z,22.60
2022-11-28T13:57:04.784Z,19.20
2022-11-28T13:59:31.105Z,21.55
2022-11-28T14:01:57.487Z,24.33
2022-11-28T14:04:23.863Z,23.10
2022-11-28T14:06:52.218Z,23.00
2022-11-28T14:09:19.163Z,23.92
2022-11-28T14:11:46.703Z,23.75
2022-11-28T14:14:13.274Z,21.80
2022-11-28T14:16:39.762Z,18.75
2022-11-28T14:19:06.871Z,19.75
2022-11-28T14:21:33.227Z,21.48
2022-11-28T14:23:59.566Z,19.90
2022-11-28T14:26:29.156Z,21.15
2022-11-28T14:28:55.466Z,20.48
2022-11-28T14:31:21.848Z,19.30
2022-11-28T14:33:48.233Z,22.87
2022-11-28T14:36:14.690Z,20.27
2022-11-28T14:38:41.022Z,20.45
2022-11-28T14:41:09.220Z,19.48
2022-11-28T14:43:35.588Z,19.30
2022-11-28T14:46:01.911Z,19.00
2022-11-28T14:48:29.051Z,18.05
2022-11-28T14:51:01.373Z,18.50
2022-11-28T14:53:28.334Z,18.65
2022-11-28T14:55:58.133Z,20.02
2022-11-28T14:58:24.482Z,20.05
2022-11-28T15:00:50.859Z,20.67
2022-11-28T15:03:17.352Z,18.77
2022-11-28T15:05:43.809Z,21.33
2022-11-28T15:08:10.183Z,20.62
2022-11-28T15:10:36.662Z,21.45
2022-11-28T15:13:03.165Z,20.98
2022-11-28T15:15:29.793Z,24.92
2022-11-28T15:17:56.177Z,21.02
2022-11-28T15:20:22.589Z,21.60
2022-11-28T15:22:49.374Z,20.12
2022-11-28T15:25:15.690Z,21.80
2022-11-28T15:27:41.997Z,23.80
2022-11-28T15:30:08.462Z,22.20
2022-11-28T15:32:34.762Z,23.40
2022-11-28T15:35:01.222Z,22.67
2022-11-28T15:37:27.573Z,21.37
2022-11-28T15:39:53.962Z,23.50
2022-11-28T15:42:20.283Z,23.48
2022-11-28T15:44:46.628Z,22.77
2022-11-28T15:47:12.952Z,23.80
2022-11-28T15:49:41.181Z,21.40
2022-11-28T15:52:07.504Z,24.30
2022-11-28T15:54:33.859Z,25.15
2022-11-28T15:57:00.175Z,25.50
2022-11-28T15:59:26.489Z,23.15
2022-11-28T16:01:57.826Z,22.55
2022-11-28T16:04:25.994Z,26.52
2022-11-28T16:06:52.333Z,22.23
2022-11-28T16:09:18.654Z,25.27
2022-11-28T16:11:44.973Z,24.23
2022-11-28T16:14:11.344Z,23.23
2022-11-28T16:16:37.788Z,21.67
2022-11-28T16:19:04.203Z,24.45
2022-11-28T16:21:30.571Z,25.55
2022-11-28T16:23:57.067Z,22.00
2022-11-28T16:26:23.412Z,22.85
2022-11-28T16:28:49.822Z,24.85
2022-11-28T16:31:16.313Z,24.35
2022-11-28T16:33:42.710Z,26.37
2022-11-28T16:36:09.027Z,24.17
2022-11-28T16:38:35.334Z,26.00
2022-11-28T16:41:01.724Z,26.75
2022-11-28T16:43:28.062Z,24.83
2022-11-28T16:45:54.425Z,30.20
2022-11-28T16:48:21.817Z,26.50
2022-11-28T16:50:48.137Z,28.67
2022-11-28T16:53:14.478Z,28.00
2022-11-28T16:55:40.853Z,25.30
2022-11-28T16:58:07.515Z,27.48
2022-11-28T17:00:33.837Z,26.50
2022-11-28T17:03:00.189Z,26.62
2022-11-28T17:05:26.514Z,26.80
2022-11-28T17:07:52.858Z,27.20
2022-11-28T17:10:19.195Z,29.98
2022-11-28T17:12:45.503Z,25.37
2022-11-28T17:15:11.836Z,29.65
2022-11-28T17:17:38.158Z,26.12
2022-11-28T17:20:04.469Z,26.83
2022-11-28T17:22:31.160Z,24.67
2022-11-28T17:24:59.260Z,20.50
2022-11-28T17:27:25.576Z,26.30
2022-11-28T17:29:52.175Z,24.52
2022-11-28T17:32:18.495Z,25.48
2022-11-28T17:34:46.227Z,29.33
2022-11-28T17:37:15.273Z,28.37
2022-11-28T17:40:01.609Z,26.62
2022-11-28T17:42:27.950Z,27.45
2022-11-28T17:44:54.304Z,25.60
2022-11-28T17:47:20.623Z,25.20
2022-11-28T17:49:47.006Z,26.50
2022-11-28T17:52:13.445Z,27.55
2022-11-28T17:54:39.783Z,26.87
2022-11-28T17:57:06.103Z,27.23
2022-11-28T17:59:34.378Z,28.60
2022-11-28T18:02:00.782Z,27.20
2022-11-28T18:04:27.150Z,26.95
2022-11-28T18:06:53.593Z,28.95
2022-11-28T18:09:20.051Z,27.27
2022-11-28T18:11:46.852Z,24.67
2022-11-28T18:14:13.175Z,27.48
2022-11-28T18:16:44.063Z,27.90
2022-11-28T18:19:10.559Z,26.65
2022-11-28T18:21:36.897Z,23.73
2022-11-28T18:24:04.756Z,26.15
2022-11-28T18:26:31.060Z,25.08
2022-11-28T18:28:57.416Z,25.52
2022-11-28T18:31:23.783Z,26.45
2022-11-28T18:33:50.162Z,25.45
2022-11-28T18:36:16.488Z,26.35
2022-11-28T18:38:44.808Z,27.80
2022-11-28T18:41:11.315Z,24.63
2022-11-28T18:43:37.655Z,23.58
2022-11-28T18:46:08.052Z,27.23
2022-11-28T18:48:34.502Z,26.55
2022-11-28T18:51:00.969Z,23.45
2022-11-28T18:53:27.351Z,25.58
2022-11-28T18:55:53.671Z,26.12
2022-11-28T18:58:19.997Z,25.83
2022-11-28T19:00:46.345Z,28.62
2022-11-28T19:03:12.710Z,25.25
2022-11-28T19:05:39.444Z,25.73
2022-11-28T19:08:05.876Z,25.08
2022-11-28T19:10:32.194Z,25.98
2022-11-28T19:12:58.557Z,25.73
2022-11-28T19:15:24.879Z,28.52
2022-11-28T19:17:51.322Z,25.58
2022-11-28T19:20:18.400Z,25.77
2022-11-28T19:22:44.885Z,27.33
2022-11-28T19:25:11.205Z,24.30
2022-11-28T19:27:37.590Z,24.65
2022-11-28T19:30:03.906Z,26.70
2022-11-28T19:32:30.298Z,27.27
2022-11-28T19:34:56.716Z,26.30
2022-11-28T19:37:23.054Z,25.23
2022-11-28T19:39:49.371Z,25.40
2022-11-28T19:42:16.381Z,27.10
2022-11-28T19:44:42.695Z,25.33
2022-11-28T19:47:09.118Z,26.70
2022-11-28T19:49:35.492Z,28.70
2022-11-28T19:52:01.802Z,26.55
2022-11-28T19:54:28.209Z,25.17
2022-11-28T19:56:54.616Z,28.38
2022-11-28T19:59:20.961Z,30.48
2022-11-28T20:01:49.992Z,27.60
2022-11-28T20:04:16.505Z,24.77
2022-11-28T20:06:42.857Z,27.85
2022-11-28T20:09:09.224Z,28.23
2022-11-28T20:11:35.586Z,28.95
2022-11-28T20:14:01.936Z,26.92
2022-11-28T20:16:28.305Z,28.65
2022-11-28T20:18:54.791Z,26.92
2022-11-28T20:21:21.401Z,28.92
2022-11-28T20:23:47.742Z,30.10
2022-11-28T20:26:14.076Z,27.62
2022-11-28T20:28:40.383Z,28.87
2022-11-28T20:31:06.833Z,28.73
2022-11-28T20:33:33.135Z,28.08
2022-11-28T20:36:00.060Z,29.30
2022-11-28T20:38:26.425Z,29.83
2022-11-28T20:40:52.961Z,27.77
2022-11-28T20:43:19.306Z,27.15
2022-11-28T20:45:45.684Z,28.10
2022-11-28T20:48:12.021Z,28.33
2022-11-28T20:50:38.329Z,26.83
2022-11-28T20:53:04.667Z,26.90
2022-11-28T20:55:30.978Z,26.10
2022-11-28T20:57:57.299Z,26.37
2022-11-28T21:00:26.707Z,28.58
2022-11-28T21:02:53.319Z,28.40
2022-11-28T21:05:19.900Z,32.28
2022-11-28T21:07:46.480Z,29.02
2022-11-28T21:10:12.825Z,26.30
2022-11-28T21:12:39.139Z,27.02
2022-11-28T21:15:05.475Z,29.58
2022-11-28T21:17:32.867Z,27.62
2022-11-28T21:19:59.194Z,30.08
2022-11-28T21:22:25.511Z,28.75
2022-11-28T21:24:51.878Z,27.77
2022-11-28T21:27:18.215Z,28.60
2022-11-28T21:29:45.738Z,25.92
2022-11-28T21:32:13.691Z,28.10
2022-11-28T21:34:40.056Z,27.05
2022-11-28T21:37:06.378Z,24.95
2022-11-28T21:39:32.904Z,28.05
2022-11-28T21:41:59.206Z,26.83
2022-11-28T21:44:25.525Z,25.48
2022-11-28T21:46:51.839Z,23.67
2022-11-28T21:49:18.244Z,27.48
2022-11-28T21:51:44.561Z,28.73
2022-11-28T21:54:10.951Z,28.65
2022-11-28T21:56:37.291Z,28.50
2022-11-28T21:59:04.461Z,28.70
2022-11-28T22:01:30.815Z,28.23
2022-11-28T22:04:02.155Z,31.73
2022-11-28T22:06:29.374Z,29.23
2022-11-28T22:08:55.730Z,30.88
2022-11-28T22:11:22.106Z,28.67
2022-11-28T22:13:49.004Z,28.27
2022-11-28T22:16:15.441Z,32.15
2022-11-28T22:18:41.843Z,30.02
2022-11-28T22:21:28.493Z,30.83
2022-11-28T22:23:55.221Z,30.73
2022-11-28T22:26:21.838Z,26.95
2022-11-28T22:28:53.529Z,30.35
2022-11-28T22:31:20.621Z,30.92
2022-11-28T22:33:47.034Z,29.23
2022-11-28T22:36:13.799Z,31.33
2022-11-28T22:38:40.116Z,30.42
2022-11-28T22:41:06.434Z,31.85
2022-11-28T22:43:32.751Z,32.47
2022-11-28T22:45:59.176Z,30.17
2022-11-28T22:48:25.627Z,28.48
2022-11-28T22:50:51.988Z,28.42
2022-11-28T22:53:18.318Z,29.35
2022-11-28T22:55:44.656Z,28.95
2022-11-28T22:58:10.971Z,28.25
2022-11-28T23:00:37.394Z,28.35
2022-11-28T23:03:03.847Z,27.35
2022-11-28T23:05:30.238Z,26.48
2022-11-28T23:07:56.638Z,30.62
2022-11-28T23:10:23.021Z,29.77
2022-11-28T23:12:49.432Z,28.75
2022-11-28T23:15:15.845Z,28.85
2022-11-28T23:17:42.256Z,28.52
2022-11-28T23:20:08.566Z,29.98
2022-11-28T23:22:35.863Z,27.52
2022-11-28T23:25:02.161Z,29.85
2022-11-28T23:27:28.488Z,27.33
2022-11-28T23:29:54.859Z,28.83
2022-11-28T23:32:21.176Z,27.00
2022-11-28T23:34:50.559Z,28.75
2022-11-28T23:37:16.885Z,32.65
2022-11-28T23:39:43.244Z,31.33
2022-11-28T23:42:09.563Z,26.67
2022-11-28T23:44:35.889Z,26.85
2022-11-28T23:47:02.252Z,27.52
2022-11-28T23:49:28.637Z,26.73
2022-11-28T23:51:54.982Z,30.70
2022-11-28T23:54:21.295Z,28.20
2022-11-28T23:56:47.650Z,29.27
2022-11-28T23:59:14.033Z,29.65
